createdAt,value
2018-02-05T00:01:00.624Z,62.42
2018-02-05T00:03:28.574Z,61.80
2018-02-05T00:05:56.591Z,61.66
2018-02-05T00:08:24.633Z,61.70
2018-02-05T00:10:52.630Z,60.99
2018-02-05T00:13:20.582Z,60.39
2018-02-05T00:15:48.469Z,61.15
2018-02-05T00:18:16.447Z,61.44
2018-02-05T00:20:44.398Z,60.69
2018-02-05T00:23:12.274Z,60.68
2018-02-05T00:25:40.502Z,60.61
2018-02-05T00:28:08.478Z,60.41
2018-02-05T00:30:36.398Z,60.52
2018-02-05T00:33:04.321Z,60.59
2018-02-05T00:35:32.267Z,60.74
2018-02-05T00:38:00.255Z,60.38
2018-02-05T00:40:28.158Z,60.87
2018-02-05T00:42:56.294Z,60.73
2018-02-05T00:45:24.275Z,60.65
2018-02-05T00:47:52.256Z,60.39
2018-02-05T00:50:20.211Z,60.75
2018-02-05T00:52:48.082Z,60.71
2018-02-05T00:55:16.061Z,60.19
2018-02-05T00:57:44.065Z,59.99
2018-02-05T01:00:12.051Z,60.08
2018-02-05T01:02:39.990Z,60.94
2018-02-05T01:05:08.009Z,60.30
2018-02-05T01:07:36.042Z,60.03
2018-02-05T01:10:04.026Z,60.24
2018-02-05T01:12:31.977Z,62.71
2018-02-05T01:14:59.946Z,62.53
2018-02-05T01:17:27.777Z,61.27
2018-02-05T01:19:55.777Z,62.16
2018-02-05T01:22:23.694Z,63.10
2018-02-05T01:24:51.631Z,61.96
2018-02-05T01:27:19.916Z,61.52
2018-02-05T01:29:47.997Z,61.91
2018-02-05T01:32:16.007Z,61.13
2018-02-05T01:34:43.946Z,60.51
2018-02-05T01:37:11.910Z,60.27
2018-02-05T01:39:39.838Z,60.33
2018-02-05T01:42:07.730Z,60.17
2018-02-05T01:44:35.602Z,59.92
2018-02-05T01:47:03.578Z,60.13
2018-02-05T01:49:31.486Z,60.64
2018-02-05T01:51:59.471Z,61.04
2018-02-05T01:54:27.500Z,61.78
2018-02-05T01:56:55.471Z,63.79
2018-02-05T01:59:23.445Z,64.72
2018-02-05T02:01:51.401Z,64.16
2018-02-05T02:04:19.327Z,63.30
2018-02-05T02:06:47.292Z,62.23
2018-02-05T02:09:15.225Z,61.70
2018-02-05T02:11:43.428Z,61.02
2018-02-05T02:14:11.364Z,61.23
2018-02-05T02:16:39.268Z,62.13
2018-02-05T02:19:07.212Z,63.30
2018-02-05T02:21:35.257Z,62.93
2018-02-05T02:24:03.162Z,63.42
2018-02-05T02:26:31.134Z,64.84
2018-02-05T02:28:59.426Z,64.12
2018-02-05T02:31:27.460Z,63.43
2018-02-05T02:33:55.411Z,62.37
2018-02-05T02:36:23.382Z,61.93
2018-02-05T02:38:51.322Z,62.17
2018-02-05T02:41:19.331Z,61.44
2018-02-05T02:43:47.294Z,61.69
2018-02-05T02:46:15.387Z,62.93
2018-02-05T02:48:43.338Z,63.89
2018-02-05T02:51:11.234Z,63.68
2018-02-05T02:53:39.166Z,62.58
2018-02-05T02:56:07.115Z,62.33
2018-02-05T02:58:35.058Z,61.35
2018-02-05T03:01:03.054Z,61.43
2018-02-05T03:03:31.123Z,61.46
2018-02-05T03:05:59.046Z,61.49
2018-02-05T03:08:26.973Z,61.97
2018-02-05T03:10:54.942Z,63.28
2018-02-05T03:13:23.156Z,62.10
2018-02-05T03:15:51.098Z,61.77
2018-02-05T03:18:19.003Z,61.61
2018-02-05T03:20:47.029Z,61.60
2018-02-05T03:23:15.026Z,60.95
2018-02-05T03:25:42.965Z,60.79
2018-02-05T03:28:10.927Z,60.92
2018-02-05T03:30:39.049Z,60.68
2018-02-05T03:33:07.014Z,61.00
2018-02-05T03:35:35.075Z,60.82
2018-02-05T03:38:03.027Z,60.88
2018-02-05T03:40:31.043Z,60.58
2018-02-05T03:42:59.015Z,60.62
2018-02-05T03:45:26.990Z,60.68
2018-02-05T03:47:54.934Z,60.54
2018-02-05T03:50:23.114Z,62.44
2018-02-05T03:52:51.103Z,61.69
2018-02-05T03:55:19.049Z,61.66
2018-02-05T03:57:47.002Z,60.25
2018-02-05T04:00:17.818Z,61.17
2018-02-05T04:02:45.851Z,61.59
2018-02-05T04:05:13.782Z,61.00
2018-02-05T04:07:41.719Z,60.83
2018-02-05T04:10:09.642Z,60.88
2018-02-05T04:12:37.555Z,60.82
2018-02-05T04:15:05.746Z,60.14
2018-02-05T04:17:33.727Z,59.84
2018-02-05T04:20:01.810Z,59.68
2018-02-05T04:22:29.790Z,59.64
2018-02-05T04:24:57.722Z,59.80
2018-02-05T04:27:25.773Z,60.08
2018-02-05T04:29:53.729Z,60.41
2018-02-05T04:32:22.040Z,60.58
2018-02-05T04:34:50.209Z,60.65
2018-02-05T04:37:18.193Z,60.59
2018-02-05T04:39:46.030Z,60.65
2018-02-05T04:42:14.041Z,60.25
2018-02-05T04:44:41.997Z,60.46
2018-02-05T04:47:10.102Z,60.34
2018-02-05T04:49:38.019Z,60.47
2018-02-05T04:52:06.027Z,60.15
2018-02-05T04:54:33.927Z,60.26
2018-02-05T04:57:01.825Z,60.24
2018-02-05T04:59:29.873Z,60.49
2018-02-05T05:01:57.753Z,59.55
2018-02-05T05:04:25.689Z,58.64
2018-02-05T05:06:53.603Z,59.43
2018-02-05T05:09:21.590Z,60.37
2018-02-05T05:11:49.597Z,61.32
2018-02-05T05:14:17.557Z,61.15
2018-02-05T05:16:45.836Z,61.15
2018-02-05T05:19:13.869Z,60.37
2018-02-05T05:21:41.907Z,60.54
2018-02-05T05:24:09.809Z,60.51
2018-02-05T05:26:37.829Z,60.68
2018-02-05T05:29:05.831Z,60.70
2018-02-05T05:31:33.722Z,60.33
2018-02-05T05:34:02.066Z,60.32
2018-02-05T05:36:30.041Z,60.12
2018-02-05T05:38:58.075Z,60.10
2018-02-05T05:41:26.017Z,60.51
2018-02-05T05:43:53.987Z,60.22
2018-02-05T05:46:21.955Z,60.05
2018-02-05T05:48:49.881Z,61.67
2018-02-05T05:51:17.810Z,63.04
2018-02-05T05:53:45.707Z,61.35
2018-02-05T05:56:13.683Z,60.70
2018-02-05T05:58:41.624Z,60.79
2018-02-05T06:01:09.592Z,61.05
2018-02-05T06:03:37.557Z,60.91
2018-02-05T06:06:05.546Z,60.93
2018-02-05T06:08:33.458Z,62.61
2018-02-05T06:11:01.362Z,63.26
2018-02-05T06:13:29.291Z,60.27
2018-02-05T06:15:57.303Z,58.54
2018-02-05T06:18:25.470Z,61.69
2018-02-05T06:20:53.411Z,61.06
2018-02-05T06:23:21.398Z,61.40
2018-02-05T06:25:49.358Z,61.31
2018-02-05T06:28:17.457Z,58.03
2018-02-05T06:30:45.411Z,56.61
2018-02-05T06:33:13.514Z,58.59
2018-02-05T06:35:41.921Z,59.68
2018-02-05T06:38:09.847Z,56.24
2018-02-05T06:40:37.825Z,55.28
2018-02-05T06:43:05.749Z,54.94
2018-02-05T06:45:33.774Z,54.32
2018-02-05T06:48:01.719Z,54.69
2018-02-05T06:50:41.414Z,53.84
2018-02-05T06:53:21.080Z,54.79
2018-02-05T06:55:49.027Z,55.27
2018-02-05T06:58:16.966Z,52.72
2018-02-05T07:00:45.816Z,53.61
2018-02-05T07:03:13.810Z,58.73
2018-02-05T07:05:41.952Z,55.60
2018-02-05T07:08:09.929Z,57.98
2018-02-05T07:10:37.852Z,57.55
2018-02-05T07:13:05.706Z,58.20
2018-02-05T07:15:33.689Z,56.29
2018-02-05T07:18:01.616Z,52.11
2018-02-05T07:20:29.541Z,53.13
2018-02-05T07:22:57.573Z,51.89
2018-02-05T07:25:25.567Z,53.11
2018-02-05T07:27:53.598Z,51.18
2018-02-05T07:30:22.098Z,46.96
2018-02-05T07:32:50.106Z,43.44
2018-02-05T07:35:18.125Z,45.52
2018-02-05T07:37:46.410Z,44.45
2018-02-05T07:40:14.361Z,41.81
2018-02-05T07:42:42.332Z,42.21
2018-02-05T07:45:10.254Z,40.92
2018-02-05T07:47:38.164Z,43.71
2018-02-05T07:50:06.099Z,42.90
2018-02-05T07:52:34.038Z,40.34
2018-02-05T07:55:01.927Z,40.64
2018-02-05T07:57:30.050Z,40.65
2018-02-05T07:59:58.103Z,38.80
2018-02-05T08:02:26.102Z,38.99
2018-02-05T08:04:54.118Z,40.55
2018-02-05T08:07:22.142Z,40.10
2018-02-05T08:09:50.099Z,38.77
2018-02-05T08:12:18.106Z,38.79
2018-02-05T08:14:46.090Z,38.83
2018-02-05T08:17:14.101Z,39.51
2018-02-05T08:19:42.139Z,38.39
2018-02-05T08:22:10.147Z,38.34
2018-02-05T08:24:40.405Z,37.21
2018-02-05T08:27:08.370Z,37.85
2018-02-05T08:29:36.382Z,37.46
2018-02-05T08:32:04.352Z,34.57
2018-02-05T08:34:32.380Z,34.72
2018-02-05T08:37:00.342Z,32.24
2018-02-05T08:39:28.680Z,34.62
2018-02-05T08:41:56.670Z,32.71
2018-02-05T08:44:24.676Z,34.47
2018-02-05T08:46:52.657Z,32.97
2018-02-05T08:49:20.795Z,33.35
2018-02-05T08:51:48.810Z,33.50
2018-02-05T08:54:16.837Z,32.16
2018-02-05T08:56:44.894Z,33.16
2018-02-05T08:59:12.826Z,31.12
2018-02-05T09:01:40.897Z,30.92
2018-02-05T09:04:08.863Z,31.12
2018-02-05T09:06:36.954Z,32.01
2018-02-05T09:09:05.094Z,31.12
2018-02-05T09:11:33.648Z,30.64
2018-02-05T09:14:01.554Z,32.83
2018-02-05T09:16:29.582Z,32.80
2018-02-05T09:18:57.552Z,30.13
2018-02-05T09:21:25.500Z,27.79
2018-02-05T09:23:53.499Z,27.35
2018-02-05T09:26:21.442Z,30.13
2018-02-05T09:28:49.446Z,26.65
2018-02-05T09:31:17.422Z,27.21
2018-02-05T09:33:45.475Z,26.83
2018-02-05T09:36:13.487Z,26.18
2018-02-05T09:38:41.407Z,25.74
2018-02-05T09:41:10.041Z,31.87
2018-02-05T09:43:38.535Z,29.74
2018-02-05T09:46:06.810Z,29.75
2018-02-05T09:48:35.185Z,24.50
2018-02-05T09:51:03.650Z,29.79
2018-02-05T09:53:31.842Z,27.25
2018-02-05T09:56:00.304Z,29.64
2018-02-05T09:58:28.811Z,29.29
2018-02-05T10:00:57.286Z,25.93
2018-02-05T10:03:25.488Z,27.87
2018-02-05T10:05:53.935Z,27.00
2018-02-05T10:08:22.570Z,26.10
2018-02-05T10:10:50.785Z,24.86
2018-02-05T10:13:19.583Z,28.97
2018-02-05T10:15:47.746Z,27.65
2018-02-05T10:18:16.138Z,26.33
2018-02-05T10:20:44.598Z,30.22
2018-02-05T10:23:12.999Z,26.68
2018-02-05T10:25:41.680Z,26.26
2018-02-05T10:28:09.993Z,26.64
2018-02-05T10:30:38.540Z,25.78
2018-02-05T10:33:07.227Z,26.76
2018-02-05T10:35:35.813Z,26.24
2018-02-05T10:38:03.744Z,23.39
2018-02-05T10:40:31.782Z,24.97
2018-02-05T10:43:00.212Z,24.03
2018-02-05T10:45:28.175Z,26.19
2018-02-05T10:47:56.211Z,28.02
2018-02-05T10:50:24.178Z,29.39
2018-02-05T10:52:52.193Z,25.32
2018-02-05T10:55:20.227Z,25.83
2018-02-05T10:57:49.355Z,23.94
2018-02-05T11:00:17.344Z,25.78
2018-02-05T11:02:45.376Z,28.09
2018-02-05T11:05:13.418Z,24.38
2018-02-05T11:07:41.391Z,24.09
2018-02-05T11:10:09.350Z,23.28
2018-02-05T11:12:37.264Z,24.43
2018-02-05T11:15:05.191Z,23.56
2018-02-05T11:17:33.141Z,23.95
2018-02-05T11:20:01.166Z,24.98
2018-02-05T11:22:29.099Z,22.44
2018-02-05T11:24:57.079Z,21.40
2018-02-05T11:27:25.195Z,21.77
2018-02-05T11:29:53.255Z,19.74
2018-02-05T11:32:21.235Z,18.07
2018-02-05T11:34:49.256Z,17.32
2018-02-05T11:37:17.431Z,19.30
2018-02-05T11:39:45.429Z,17.39
2018-02-05T11:42:13.438Z,19.08
2018-02-05T11:44:41.796Z,18.39
2018-02-05T11:47:09.787Z,21.25
2018-02-05T11:49:38.247Z,24.49
2018-02-05T11:52:06.404Z,19.19
2018-02-05T11:54:34.895Z,19.33
2018-02-05T11:57:03.369Z,17.79
2018-02-05T11:59:32.482Z,18.25
2018-02-05T12:02:01.205Z,17.46
2018-02-05T12:04:29.962Z,18.86
2018-02-05T12:06:59.366Z,20.64
2018-02-05T12:09:27.453Z,24.65
2018-02-05T12:11:55.560Z,17.73
2018-02-05T12:14:23.599Z,18.26
2018-02-05T12:16:51.757Z,20.42
2018-02-05T12:19:19.892Z,18.89
2018-02-05T12:21:47.891Z,19.41
2018-02-05T12:24:15.958Z,18.55
2018-02-05T12:26:43.940Z,18.75
2018-02-05T12:29:12.008Z,19.71
2018-02-05T12:31:40.154Z,19.27
2018-02-05T12:34:08.191Z,18.90
2018-02-05T12:36:36.376Z,20.78
2018-02-05T12:39:04.495Z,19.65
2018-02-05T12:41:32.532Z,18.69
2018-02-05T12:44:00.636Z,18.91
2018-02-05T12:46:29.194Z,17.85
2018-02-05T12:48:57.214Z,18.88
2018-02-05T12:51:25.239Z,18.06
2018-02-05T12:53:53.327Z,18.35
2018-02-05T12:56:21.352Z,19.20
2018-02-05T12:58:49.355Z,18.59
2018-02-05T13:04:44.061Z,18.89
2018-02-05T13:07:12.111Z,20.18
2018-02-05T13:09:40.009Z,21.26
2018-02-05T13:12:09.051Z,18.66
2018-02-05T13:14:37.034Z,20.31
2018-02-05T13:17:04.961Z,18.70
2018-02-05T13:19:32.901Z,18.47
2018-02-05T13:22:00.893Z,21.16
2018-02-05T13:24:28.884Z,20.92
2018-02-05T13:26:56.770Z,20.26
2018-02-05T13:29:25.095Z,19.28
2018-02-05T13:31:53.010Z,21.06
2018-02-05T13:34:20.980Z,21.39
2018-02-05T13:36:48.886Z,19.70
2018-02-05T13:39:16.821Z,19.69
2018-02-05T13:41:44.722Z,19.30
2018-02-05T13:44:12.670Z,20.82
2018-02-05T13:46:40.754Z,19.67
2018-02-05T13:49:08.746Z,19.53
2018-02-05T13:51:36.783Z,21.02
2018-02-05T13:54:04.714Z,21.37
2018-02-05T13:56:32.698Z,21.51
2018-02-05T13:59:00.630Z,20.33
2018-02-05T14:01:29.551Z,20.44
2018-02-05T14:03:57.511Z,24.81
2018-02-05T14:06:25.518Z,23.34
2018-02-05T14:08:53.490Z,23.68
2018-02-05T14:11:21.454Z,25.59
2018-02-05T14:13:49.440Z,26.29
2018-02-05T14:16:17.378Z,26.04
2018-02-05T14:18:45.462Z,25.74
2018-02-05T14:21:13.428Z,24.92
2018-02-05T14:23:41.352Z,25.53
2018-02-05T14:26:09.248Z,25.16
2018-02-05T14:28:37.202Z,24.19
2018-02-05T14:31:05.244Z,25.02
2018-02-05T14:33:33.227Z,23.93
2018-02-05T14:36:01.203Z,24.33
2018-02-05T14:38:29.130Z,24.30
2018-02-05T14:40:57.090Z,24.16
2018-02-05T14:43:25.150Z,24.70
2018-02-05T14:45:53.133Z,28.31
2018-02-05T14:48:21.442Z,28.21
2018-02-05T14:50:49.465Z,28.75
2018-02-05T14:53:17.445Z,31.01
2018-02-05T14:55:45.592Z,34.50
2018-02-05T14:58:13.646Z,35.13
2018-02-05T15:00:41.618Z,36.57
2018-02-05T15:03:09.647Z,35.89
2018-02-05T15:05:38.017Z,35.07
2018-02-05T15:08:06.153Z,34.75
2018-02-05T15:10:34.095Z,35.89
2018-02-05T15:13:02.070Z,36.76
2018-02-05T15:15:30.107Z,37.86
2018-02-05T15:17:58.071Z,38.11
2018-02-05T15:20:26.059Z,38.04
2018-02-05T15:22:53.983Z,36.98
2018-02-05T15:25:21.989Z,36.45
2018-02-05T15:27:50.032Z,37.38
2018-02-05T15:30:18.016Z,37.42
2018-02-05T15:32:46.301Z,38.12
2018-02-05T15:35:14.291Z,39.92
2018-02-05T15:37:42.168Z,41.02
2018-02-05T15:40:10.207Z,40.18
2018-02-05T15:42:38.726Z,40.32
2018-02-05T15:45:07.688Z,42.43
2018-02-05T15:47:36.897Z,44.24
2018-02-05T15:50:05.315Z,43.34
2018-02-05T15:52:33.326Z,43.67
2018-02-05T15:55:01.240Z,45.29
2018-02-05T15:57:29.157Z,44.36
2018-02-05T15:59:57.192Z,44.37
2018-02-05T16:02:26.778Z,44.77
2018-02-05T16:04:54.763Z,44.13
2018-02-05T16:07:23.395Z,44.36
2018-02-05T16:09:51.946Z,44.60
2018-02-05T16:12:19.932Z,43.75
2018-02-05T16:14:47.921Z,43.70
2018-02-05T16:17:15.936Z,43.89
2018-02-05T16:19:43.969Z,45.27
2018-02-05T16:22:11.926Z,45.75
2018-02-05T16:24:39.842Z,45.53
2018-02-05T16:27:07.866Z,46.01
2018-02-05T16:29:35.774Z,47.40
2018-02-05T16:32:03.776Z,44.61
2018-02-05T16:34:31.798Z,43.76
2018-02-05T16:36:59.794Z,45.37
2018-02-05T16:39:27.765Z,44.47
2018-02-05T16:41:55.766Z,45.30
2018-02-05T16:44:23.754Z,44.41
2018-02-05T16:46:51.661Z,44.48
2018-02-05T16:49:19.638Z,44.71
2018-02-05T16:51:47.826Z,46.41
2018-02-05T16:54:15.803Z,46.47
2018-02-05T16:56:43.786Z,46.92
2018-02-05T16:59:11.787Z,46.12
2018-02-05T17:01:39.711Z,45.94
2018-02-05T17:04:07.703Z,45.45
2018-02-05T17:06:35.655Z,46.59
2018-02-05T17:09:03.783Z,46.08
2018-02-05T17:11:31.820Z,46.12
2018-02-05T17:13:59.739Z,46.54
2018-02-05T17:16:27.679Z,46.55
2018-02-05T17:18:55.604Z,47.00
2018-02-05T17:21:23.542Z,45.86
2018-02-05T17:23:51.480Z,43.77
2018-02-05T17:26:19.471Z,45.65
2018-02-05T17:28:47.426Z,45.71
2018-02-05T17:31:15.497Z,47.48
2018-02-05T17:33:43.610Z,47.85
2018-02-05T17:36:11.770Z,47.42
2018-02-05T17:38:39.778Z,47.73
2018-02-05T17:41:07.766Z,47.27
2018-02-05T17:43:35.753Z,47.07
2018-02-05T17:46:03.744Z,46.17
2018-02-05T17:48:31.664Z,48.31
2018-02-05T17:50:59.691Z,49.49
2018-02-05T17:53:28.253Z,48.84
2018-02-05T17:55:56.178Z,48.40
2018-02-05T17:58:24.162Z,48.78
2018-02-05T18:00:52.130Z,48.64
2018-02-05T18:03:20.222Z,48.95
2018-02-05T18:05:48.243Z,48.49
2018-02-05T18:08:16.258Z,48.35
2018-02-05T18:10:44.239Z,49.18
2018-02-05T18:13:12.272Z,49.95
2018-02-05T18:15:40.247Z,49.81
2018-02-05T18:18:08.239Z,49.47
2018-02-05T18:20:36.216Z,47.56
2018-02-05T18:23:04.179Z,47.62
2018-02-05T18:25:32.118Z,47.03
2018-02-05T18:28:00.111Z,46.99
2018-02-05T18:30:28.093Z,47.38
2018-02-05T18:32:56.074Z,46.91
2018-02-05T18:35:24.076Z,46.88
2018-02-05T18:37:52.126Z,47.82
2018-02-05T18:40:20.207Z,49.96
2018-02-05T18:42:48.286Z,51.88
2018-02-05T18:45:16.285Z,50.15
2018-02-05T18:47:44.218Z,49.63
2018-02-05T18:50:12.194Z,50.00
2018-02-05T18:52:40.141Z,49.51
2018-02-05T18:55:08.588Z,48.33
2018-02-05T18:57:36.515Z,49.22
2018-02-05T19:00:16.267Z,53.36
2018-02-05T19:02:44.262Z,51.72
2018-02-05T19:05:12.312Z,51.73
2018-02-05T19:07:40.994Z,49.04
2018-02-05T19:10:08.971Z,48.59
2018-02-05T19:12:36.984Z,47.55
2018-02-05T19:15:04.970Z,47.98
2018-02-05T19:17:32.926Z,46.62
2018-02-05T19:20:00.947Z,47.45
2018-02-05T19:22:28.879Z,46.85
2018-02-05T19:24:56.825Z,47.93
2018-02-05T19:27:24.802Z,46.62
2018-02-05T19:29:52.752Z,47.40
2018-02-05T19:32:20.655Z,48.59
2018-02-05T19:34:48.647Z,53.16
2018-02-05T19:37:16.630Z,53.69
2018-02-05T19:39:44.724Z,52.19
2018-02-05T19:42:12.719Z,49.48
2018-02-05T19:44:40.685Z,48.34
2018-02-05T19:47:09.898Z,48.58
2018-02-05T19:49:38.006Z,48.06
2018-02-05T19:52:06.018Z,49.88
2018-02-05T19:54:34.005Z,52.93
2018-02-05T19:57:02.230Z,50.24
2018-02-05T19:59:30.226Z,49.84
2018-02-05T20:01:58.103Z,50.74
2018-02-05T20:04:26.023Z,51.84
2018-02-05T20:06:53.981Z,51.61
2018-02-05T20:09:22.274Z,49.63
2018-02-05T20:11:50.206Z,50.15
2018-02-05T20:14:18.197Z,51.73
2018-02-05T20:16:47.128Z,55.78
2018-02-05T20:19:15.078Z,54.76
2018-02-05T20:21:42.966Z,53.88
2018-02-05T20:24:10.852Z,54.52
2018-02-05T20:26:38.817Z,49.46
2018-02-05T20:29:06.763Z,50.35
2018-02-05T20:31:34.697Z,51.35
2018-02-05T20:34:02.668Z,48.61
2018-02-05T20:36:30.641Z,48.23
2018-02-05T20:38:58.545Z,48.11
2018-02-05T20:41:26.868Z,48.18
2018-02-05T20:43:54.810Z,47.69
2018-02-05T20:46:22.800Z,47.67
2018-02-05T20:48:50.802Z,47.36
2018-02-05T20:51:18.747Z,47.33
2018-02-05T20:53:46.695Z,48.12
2018-02-05T20:56:14.574Z,49.98
2018-02-05T20:58:42.932Z,51.64
2018-02-05T21:01:10.902Z,50.56
2018-02-05T21:03:38.849Z,49.88
2018-02-05T21:06:06.825Z,50.54
2018-02-05T21:08:34.791Z,50.02
2018-02-05T21:11:02.730Z,49.54
2018-02-05T21:13:30.717Z,50.80
2018-02-05T21:15:58.707Z,52.88
2018-02-05T21:18:26.737Z,50.09
2018-02-05T21:20:54.681Z,51.58
2018-02-05T21:23:22.647Z,50.22
2018-02-05T21:25:50.591Z,50.04
2018-02-05T21:28:18.526Z,50.04
2018-02-05T21:30:46.469Z,48.99
2018-02-05T21:33:14.414Z,50.20
2018-02-05T21:35:42.403Z,48.77
2018-02-05T21:38:10.423Z,48.25
2018-02-05T21:40:38.510Z,48.46
2018-02-05T21:43:06.635Z,52.08
2018-02-05T21:45:34.607Z,51.47
2018-02-05T21:48:02.639Z,50.89
2018-02-05T21:50:30.582Z,50.16
2018-02-05T21:52:58.578Z,51.48
2018-02-05T21:55:26.522Z,49.52
2018-02-05T21:57:54.475Z,49.37
2018-02-05T22:00:22.804Z,49.69
2018-02-05T22:02:50.754Z,48.66
2018-02-05T22:05:18.585Z,49.38
2018-02-05T22:07:46.532Z,49.05
2018-02-05T22:10:14.529Z,48.86
2018-02-05T22:12:42.490Z,49.19
2018-02-05T22:15:10.518Z,49.08
2018-02-05T22:17:38.441Z,49.67
2018-02-05T22:20:06.399Z,52.67
2018-02-05T22:22:34.345Z,51.17
2018-02-05T22:25:02.355Z,52.51
2018-02-05T22:27:30.218Z,54.13
2018-02-05T22:29:58.404Z,55.32
2018-02-05T22:32:26.427Z,52.96
2018-02-05T22:34:54.391Z,50.62
2018-02-05T22:37:22.349Z,53.58
2018-02-05T22:39:50.310Z,56.29
2018-02-05T22:42:18.224Z,56.17
2018-02-05T22:44:47.135Z,53.60
2018-02-05T22:47:15.160Z,52.20
2018-02-05T22:49:43.135Z,52.56
2018-02-05T22:52:11.059Z,53.31
2018-02-05T22:54:38.974Z,55.57
2018-02-05T22:57:06.842Z,52.95
2018-02-05T22:59:34.802Z,53.33
2018-02-05T23:02:03.139Z,52.67
2018-02-05T23:04:31.136Z,51.58
2018-02-05T23:06:59.005Z,50.97
2018-02-05T23:09:27.097Z,52.14
2018-02-05T23:11:55.030Z,53.30
2018-02-05T23:14:22.982Z,52.79
2018-02-05T23:16:50.919Z,52.78
2018-02-05T23:19:18.815Z,52.27
2018-02-05T23:21:46.787Z,54.38
2018-02-05T23:24:14.773Z,51.63
2018-02-05T23:26:42.678Z,52.29
2018-02-05T23:29:10.680Z,50.74
2018-02-05T23:31:38.586Z,51.82
2018-02-05T23:34:06.485Z,51.54
2018-02-05T23:36:34.418Z,50.94
2018-02-05T23:39:02.340Z,52.15
2018-02-05T23:41:30.287Z,52.58
2018-02-05T23:43:58.184Z,50.73
2018-02-05T23:46:26.523Z,49.18
2018-02-05T23:48:54.461Z,51.91
2018-02-05T23:51:22.431Z,53.61
2018-02-05T23:53:50.334Z,53.50
2018-02-05T23:56:18.306Z,55.55
2018-02-05T23:58:46.223Z,54.34
